Meansville, Georgia
Current Conditions -  °F | °C
As of 11:15 PM on Sunday 25 Jan 2015 (Local Time) from KOPN Reporting Station
Broken Clouds Broken Clouds  
Wind Chill: 45°   Ceiling: 7500
Heat Index: 48°   Visibility: 10mi
Dew Point: 37°   Wind: 7mph
Humidity: 66%   Direction: 260°W
Pressure: 29.8"   Gusts: NA
Location:  33.05°N, 84.31°W
Report Text: KOPN 260415Z AUTO 26006KT 10SM SCT047 SCT060 BKN075 09/03 A2980 RMK AO2
Loading
Personal Weather Stations






























Interactive Weather Map New forecast layout! Learn more

10-Day Weather Forecast

Advertisements
Track Severe Weather on mobile